createdAt,value
2017-10-24T00:00:29.390Z,17.23
2017-10-24T00:01:03.263Z,16.15
2017-10-24T00:01:37.151Z,15.85
2017-10-24T00:02:11.047Z,15.20
2017-10-24T00:02:45.503Z,14.23
2017-10-24T00:03:19.588Z,16.35
2017-10-24T00:03:53.475Z,14.40
2017-10-24T00:04:27.559Z,16.73
2017-10-24T00:05:01.472Z,15.38
2017-10-24T00:05:35.377Z,16.48
2017-10-24T00:06:09.550Z,16.87
2017-10-24T00:06:43.412Z,15.55
2017-10-24T00:07:17.290Z,13.98
2017-10-24T00:07:51.247Z,16.37
2017-10-24T00:08:25.114Z,15.63
2017-10-24T00:08:59.000Z,16.17
2017-10-24T00:09:32.881Z,16.75
2017-10-24T00:10:06.875Z,16.00
2017-10-24T00:10:40.747Z,14.73
2017-10-24T00:11:14.658Z,15.93
2017-10-24T00:11:48.532Z,16.30
2017-10-24T00:12:22.414Z,14.87
2017-10-24T00:12:56.284Z,15.90
2017-10-24T00:13:30.148Z,16.77
2017-10-24T00:14:04.040Z,17.65
2017-10-24T00:14:37.923Z,15.98
2017-10-24T00:15:11.791Z,15.60
2017-10-24T00:15:45.664Z,16.27
2017-10-24T00:16:19.572Z,16.60
2017-10-24T00:16:53.457Z,15.20
2017-10-24T00:17:27.331Z,16.30
2017-10-24T00:18:01.204Z,15.77
2017-10-24T00:18:35.079Z,16.73
2017-10-24T00:19:09.142Z,15.73
2017-10-24T00:19:42.984Z,14.90
2017-10-24T00:20:16.872Z,15.27
2017-10-24T00:20:50.739Z,15.85
2017-10-24T00:21:24.833Z,17.05
2017-10-24T00:21:58.727Z,15.80
2017-10-24T00:22:32.626Z,17.33
2017-10-24T00:23:06.827Z,16.08
2017-10-24T00:23:40.928Z,16.98
2017-10-24T00:24:14.792Z,15.43
2017-10-24T00:24:48.662Z,17.62
2017-10-24T00:25:22.526Z,16.25
2017-10-24T00:25:56.398Z,16.52
2017-10-24T00:26:30.256Z,15.13
2017-10-24T00:27:04.492Z,15.85
2017-10-24T00:27:38.503Z,15.70
2017-10-24T00:28:12.380Z,16.58
2017-10-24T00:28:46.250Z,15.57
2017-10-24T00:29:20.119Z,15.52
2017-10-24T00:29:53.978Z,15.15
2017-10-24T00:30:27.855Z,15.68
2017-10-24T00:31:01.732Z,15.20
2017-10-24T00:31:35.665Z,15.23
2017-10-24T00:32:09.566Z,15.35
2017-10-24T00:32:43.472Z,15.07
2017-10-24T00:33:17.430Z,15.02
2017-10-24T00:33:51.297Z,16.70
2017-10-24T00:34:25.168Z,15.73
2017-10-24T00:34:59.128Z,16.27
2017-10-24T00:35:33.150Z,16.85
2017-10-24T00:36:07.024Z,15.05
2017-10-24T00:36:41.054Z,15.32
2017-10-24T00:37:15.221Z,15.98
2017-10-24T00:37:49.104Z,16.12
2017-10-24T00:38:23.029Z,16.58
2017-10-24T00:38:56.906Z,16.25
2017-10-24T00:39:30.815Z,15.32
2017-10-24T00:40:04.718Z,15.35
2017-10-24T00:40:38.596Z,15.65
2017-10-24T00:41:12.466Z,16.80
2017-10-24T00:41:46.346Z,15.27
2017-10-24T00:42:20.212Z,16.65
2017-10-24T00:42:54.490Z,15.45
2017-10-24T00:43:28.366Z,16.35
2017-10-24T00:44:04.864Z,14.85
2017-10-24T00:44:38.965Z,15.85
2017-10-24T00:45:12.841Z,14.60
2017-10-24T00:45:46.710Z,15.85
2017-10-24T00:46:20.728Z,15.27
2017-10-24T00:46:54.598Z,15.15
2017-10-24T00:47:28.621Z,15.57
2017-10-24T00:48:02.498Z,15.60
2017-10-24T00:48:36.373Z,16.62
2017-10-24T00:49:10.841Z,15.45
2017-10-24T00:49:44.713Z,15.57
2017-10-24T00:50:18.706Z,14.48
2017-10-24T00:50:52.702Z,14.87
2017-10-24T00:51:27.589Z,16.48
2017-10-24T00:52:01.451Z,16.50
2017-10-24T00:52:35.312Z,16.48
2017-10-24T00:53:09.335Z,16.25
2017-10-24T00:53:43.322Z,15.70
2017-10-24T00:54:17.425Z,15.90
2017-10-24T00:54:51.507Z,14.98
2017-10-24T00:55:25.381Z,17.12
2017-10-24T00:55:59.253Z,15.18
2017-10-24T00:56:33.136Z,16.17
2017-10-24T00:57:07.008Z,15.35
2017-10-24T00:57:40.873Z,15.65
2017-10-24T00:58:14.772Z,15.85
2017-10-24T00:58:48.635Z,14.90
2017-10-24T00:59:22.504Z,14.43
2017-10-24T00:59:56.458Z,15.60
2017-10-24T01:00:30.329Z,16.25
2017-10-24T01:01:04.203Z,16.60
2017-10-24T01:01:38.258Z,15.27
2017-10-24T01:02:12.353Z,15.45
2017-10-24T01:02:46.215Z,15.73
2017-10-24T01:03:20.113Z,14.25
2017-10-24T01:03:54.011Z,14.65
2017-10-24T01:04:27.892Z,15.85
2017-10-24T01:05:01.825Z,15.80
2017-10-24T01:05:35.842Z,16.48
2017-10-24T01:06:09.710Z,15.48
2017-10-24T01:06:43.616Z,15.85
2017-10-24T01:07:17.482Z,15.10
2017-10-24T01:07:51.362Z,15.32
2017-10-24T01:08:25.322Z,15.15
2017-10-24T01:08:59.406Z,16.62
2017-10-24T01:09:33.277Z,16.35
2017-10-24T01:10:07.152Z,16.08
2017-10-24T01:10:41.299Z,15.93
2017-10-24T01:11:15.298Z,14.80
2017-10-24T01:11:49.180Z,16.52
2017-10-24T01:12:23.070Z,16.10
2017-10-24T01:12:56.926Z,16.25
2017-10-24T01:13:30.828Z,15.07
2017-10-24T01:14:04.714Z,15.77
2017-10-24T01:14:38.580Z,15.68
2017-10-24T01:15:12.449Z,16.40
2017-10-24T01:15:46.471Z,16.65
2017-10-24T01:16:20.356Z,15.68
2017-10-24T01:16:54.361Z,16.40
2017-10-24T01:17:28.214Z,16.65
2017-10-24T01:18:02.103Z,14.95
2017-10-24T01:18:36.231Z,14.90
2017-10-24T01:19:10.099Z,14.77
2017-10-24T01:19:44.051Z,16.80
2017-10-24T01:20:17.917Z,14.40
2017-10-24T01:20:51.779Z,14.80
2017-10-24T01:21:25.807Z,16.33
2017-10-24T01:21:59.696Z,17.55
2017-10-24T01:22:33.545Z,16.52
2017-10-24T01:23:07.411Z,15.70
2017-10-24T01:23:41.304Z,15.48
2017-10-24T01:24:15.182Z,15.68
2017-10-24T01:24:49.050Z,15.30
2017-10-24T01:25:22.918Z,16.42
2017-10-24T01:25:56.802Z,14.52
2017-10-24T01:26:30.684Z,15.95
2017-10-24T01:27:04.543Z,16.05
2017-10-24T01:27:38.555Z,15.98
2017-10-24T01:28:12.861Z,15.20
2017-10-24T01:28:46.744Z,17.05
2017-10-24T01:29:20.609Z,16.50
2017-10-24T01:29:54.489Z,17.08
2017-10-24T01:30:28.354Z,15.32
2017-10-24T01:31:02.221Z,16.27
2017-10-24T01:31:36.097Z,14.95
2017-10-24T01:32:09.969Z,15.60
2017-10-24T01:32:43.838Z,16.52
2017-10-24T01:33:17.704Z,15.38
2017-10-24T01:33:51.816Z,15.45
2017-10-24T01:34:25.686Z,16.25
2017-10-24T01:34:59.554Z,15.45
2017-10-24T01:35:33.431Z,15.68
2017-10-24T01:36:07.494Z,15.90
2017-10-24T01:36:41.352Z,15.80
2017-10-24T01:37:15.222Z,15.77
2017-10-24T01:37:49.115Z,16.15
2017-10-24T01:38:22.994Z,16.83
2017-10-24T01:38:56.994Z,15.77
2017-10-24T01:39:30.872Z,15.20
2017-10-24T01:40:04.740Z,16.20
2017-10-24T01:40:38.606Z,16.17
2017-10-24T01:41:12.475Z,16.50
2017-10-24T01:41:46.354Z,17.83
2017-10-24T01:42:20.220Z,15.10
2017-10-24T01:42:54.102Z,16.15
2017-10-24T01:43:27.967Z,16.52
2017-10-24T01:44:01.860Z,17.02
2017-10-24T01:44:35.730Z,14.77
2017-10-24T01:45:09.696Z,14.70
2017-10-24T01:45:43.812Z,17.62
2017-10-24T01:46:17.678Z,17.08
2017-10-24T01:46:51.551Z,17.58
2017-10-24T01:47:25.412Z,16.98
2017-10-24T01:47:59.270Z,15.65
2017-10-24T01:48:33.135Z,16.17
2017-10-24T01:49:07.299Z,16.08
2017-10-24T01:49:41.158Z,14.73
2017-10-24T01:50:15.154Z,18.02
2017-10-24T01:50:49.033Z,17.33
2017-10-24T01:51:22.894Z,16.37
2017-10-24T01:51:56.751Z,18.20
2017-10-24T01:52:30.862Z,16.25
2017-10-24T01:53:04.729Z,16.60
2017-10-24T01:53:38.839Z,15.45
2017-10-24T01:54:12.747Z,17.20
2017-10-24T01:54:46.615Z,17.35
2017-10-24T01:55:20.480Z,16.37
2017-10-24T01:55:54.359Z,17.25
2017-10-24T01:56:28.214Z,17.23
2017-10-24T01:57:02.080Z,16.77
2017-10-24T01:57:35.946Z,15.80
2017-10-24T01:58:09.816Z,16.67
2017-10-24T01:58:43.763Z,17.42
2017-10-24T01:59:17.914Z,17.48
2017-10-24T01:59:51.786Z,17.30
2017-10-24T02:00:25.645Z,15.95
2017-10-24T02:00:59.517Z,17.02
2017-10-24T02:01:33.389Z,15.75
2017-10-24T02:02:07.263Z,16.92
2017-10-24T02:02:41.131Z,16.80
2017-10-24T02:03:14.993Z,15.88
2017-10-24T02:03:48.868Z,17.90
2017-10-24T02:04:22.775Z,16.30
2017-10-24T02:04:56.648Z,18.42
2017-10-24T02:05:30.551Z,17.62
2017-10-24T02:06:04.424Z,17.10
2017-10-24T02:06:38.292Z,17.42
2017-10-24T02:07:12.242Z,16.45
2017-10-24T02:07:46.108Z,16.23
2017-10-24T02:08:19.987Z,16.58
2017-10-24T02:08:53.859Z,17.17
2017-10-24T02:09:27.761Z,17.17
2017-10-24T02:10:01.626Z,18.37
2017-10-24T02:10:35.613Z,16.58
2017-10-24T02:11:09.478Z,17.20
2017-10-24T02:11:43.325Z,17.12
2017-10-24T02:12:17.189Z,18.60
2017-10-24T02:12:51.056Z,16.65
2017-10-24T02:13:25.116Z,17.80
2017-10-24T02:13:59.025Z,17.62
2017-10-24T02:14:33.002Z,18.98
2017-10-24T02:15:06.867Z,17.52
2017-10-24T02:15:40.738Z,17.12
2017-10-24T02:16:14.619Z,15.02
2017-10-24T02:16:48.496Z,17.10
2017-10-24T02:17:22.351Z,16.87
2017-10-24T02:17:56.246Z,17.83
2017-10-24T02:18:30.248Z,16.73
2017-10-24T02:19:04.116Z,16.95
2017-10-24T02:19:38.038Z,16.77
2017-10-24T02:20:11.925Z,18.00
2017-10-24T02:20:45.835Z,17.00
2017-10-24T02:21:19.702Z,18.30
2017-10-24T02:21:53.625Z,17.60
2017-10-24T02:22:27.509Z,17.35
2017-10-24T02:23:01.377Z,17.08
2017-10-24T02:23:35.306Z,18.70
2017-10-24T02:24:09.218Z,18.40
2017-10-24T02:24:43.152Z,18.90
2017-10-24T02:25:17.120Z,18.50
2017-10-24T02:25:50.979Z,19.17
2017-10-24T02:26:24.858Z,18.10
2017-10-24T02:26:58.719Z,17.55
2017-10-24T02:27:32.586Z,18.42
2017-10-24T02:28:06.451Z,18.55
2017-10-24T02:28:40.315Z,18.02
2017-10-24T02:29:14.187Z,18.40
2017-10-24T02:29:48.074Z,19.58
2017-10-24T02:30:21.967Z,18.27
2017-10-24T02:30:55.838Z,17.05
2017-10-24T02:31:29.707Z,18.17
2017-10-24T02:32:03.567Z,17.58
2017-10-24T02:32:37.427Z,17.70
2017-10-24T02:33:11.298Z,19.20
2017-10-24T02:33:45.220Z,18.10
2017-10-24T02:34:19.085Z,17.33
2017-10-24T02:34:53.025Z,18.17
2017-10-24T02:35:27.001Z,18.20
2017-10-24T02:36:00.859Z,18.48
2017-10-24T02:36:34.875Z,18.92
2017-10-24T02:37:08.870Z,18.48
2017-10-24T02:37:43.078Z,19.48
2017-10-24T02:38:16.970Z,19.30
2017-10-24T02:38:50.847Z,18.20
2017-10-24T02:39:24.792Z,19.20
2017-10-24T02:39:58.677Z,19.73
2017-10-24T02:40:32.557Z,17.95
2017-10-24T02:41:06.421Z,19.50
2017-10-24T02:41:40.273Z,20.25
2017-10-24T02:42:14.131Z,19.87
2017-10-24T02:42:48.124Z,18.85
2017-10-24T02:43:21.999Z,18.25
2017-10-24T02:43:55.866Z,19.15
2017-10-24T02:44:29.947Z,18.75
2017-10-24T02:45:03.830Z,19.35
2017-10-24T02:45:37.706Z,20.48
2017-10-24T02:46:11.748Z,19.67
2017-10-24T02:46:45.611Z,19.52
2017-10-24T02:47:19.485Z,20.27
2017-10-24T02:47:53.530Z,20.80
2017-10-24T02:48:27.405Z,20.70
2017-10-24T02:49:01.389Z,20.50
2017-10-24T02:49:35.263Z,20.17
2017-10-24T02:50:09.138Z,20.88
2017-10-24T02:50:43.001Z,20.08
2017-10-24T02:51:16.878Z,19.83
2017-10-24T02:51:50.752Z,22.00
2017-10-24T02:52:24.696Z,20.95
2017-10-24T02:52:58.607Z,20.17
2017-10-24T02:53:32.470Z,22.08
2017-10-24T02:54:06.331Z,21.05
2017-10-24T02:54:40.234Z,20.77
2017-10-24T02:55:14.371Z,20.95
2017-10-24T02:55:48.235Z,20.42
2017-10-24T02:56:22.114Z,20.98
2017-10-24T02:56:55.994Z,21.92
2017-10-24T02:57:29.865Z,22.05
2017-10-24T02:58:03.737Z,21.23
2017-10-24T02:58:37.625Z,21.40
2017-10-24T02:59:11.522Z,21.50
2017-10-24T02:59:45.418Z,21.75
2017-10-24T03:00:19.438Z,21.67
2017-10-24T03:00:53.308Z,20.02
2017-10-24T03:01:27.209Z,19.30
2017-10-24T03:02:01.323Z,18.70
2017-10-24T03:02:35.195Z,21.80
2017-10-24T03:03:09.051Z,19.17
2017-10-24T03:03:42.917Z,20.50
2017-10-24T03:04:16.787Z,19.98
2017-10-24T03:04:50.784Z,20.05
2017-10-24T03:05:24.666Z,20.65
2017-10-24T03:05:58.800Z,21.45
2017-10-24T03:06:32.667Z,20.83
2017-10-24T03:07:06.539Z,20.67
2017-10-24T03:07:40.564Z,20.48
2017-10-24T03:08:14.574Z,21.75
2017-10-24T03:08:48.679Z,20.60
2017-10-24T03:09:22.539Z,22.33
2017-10-24T03:09:56.459Z,21.45
2017-10-24T03:10:30.467Z,20.40
2017-10-24T03:11:04.357Z,19.30
2017-10-24T03:11:38.253Z,20.98
2017-10-24T03:12:12.143Z,20.50
2017-10-24T03:12:46.001Z,22.55
2017-10-24T03:13:19.956Z,21.80
2017-10-24T03:13:53.819Z,24.00
2017-10-24T03:14:27.679Z,21.05
2017-10-24T03:15:01.821Z,23.50
2017-10-24T03:15:35.844Z,22.48
2017-10-24T03:16:09.701Z,22.58
2017-10-24T03:16:43.812Z,22.73
2017-10-24T03:17:17.690Z,22.02
2017-10-24T03:17:51.606Z,22.83
2017-10-24T03:18:25.500Z,24.98
2017-10-24T03:18:59.519Z,23.05
2017-10-24T03:19:33.389Z,24.30
2017-10-24T03:20:07.491Z,23.38
2017-10-24T03:20:41.360Z,24.17
2017-10-24T03:21:15.240Z,22.77
2017-10-24T03:21:49.177Z,24.00
2017-10-24T03:22:23.049Z,23.33
2017-10-24T03:22:56.983Z,24.75
2017-10-24T03:23:30.862Z,23.60
2017-10-24T03:24:04.716Z,23.20
2017-10-24T03:24:38.866Z,23.20
2017-10-24T03:25:12.736Z,24.37
2017-10-24T03:25:46.625Z,24.12
2017-10-24T03:26:20.677Z,21.83
2017-10-24T03:26:54.562Z,23.00
2017-10-24T03:27:28.427Z,21.92
2017-10-24T03:28:02.292Z,23.25
2017-10-24T03:28:36.169Z,23.52
2017-10-24T03:29:10.029Z,23.52
2017-10-24T03:29:43.911Z,22.45
2017-10-24T03:30:17.912Z,23.33
2017-10-24T03:30:51.807Z,23.80
2017-10-24T03:31:25.670Z,24.35
2017-10-24T03:31:59.554Z,24.05
2017-10-24T03:32:33.415Z,24.45
2017-10-24T03:33:07.312Z,23.52
2017-10-24T03:33:41.191Z,24.58
2017-10-24T03:34:15.060Z,22.95
2017-10-24T03:34:48.929Z,23.33
2017-10-24T03:35:22.784Z,22.85
2017-10-24T03:35:56.679Z,23.62
2017-10-24T03:36:30.546Z,23.15
2017-10-24T03:37:04.411Z,24.30
2017-10-24T03:37:38.290Z,24.10
2017-10-24T03:38:12.159Z,24.92
2017-10-24T03:38:46.018Z,23.12
2017-10-24T03:39:19.935Z,24.20
2017-10-24T03:39:53.831Z,25.30
2017-10-24T03:40:27.683Z,23.73
2017-10-24T03:41:01.574Z,25.05
2017-10-24T03:41:35.451Z,23.62
2017-10-24T03:42:09.320Z,23.25
2017-10-24T03:42:43.191Z,24.25
2017-10-24T03:43:17.067Z,23.40
2017-10-24T03:43:50.999Z,24.98
2017-10-24T03:44:24.857Z,25.40
2017-10-24T03:44:58.731Z,25.75
2017-10-24T03:45:32.895Z,24.25
2017-10-24T03:46:06.777Z,24.52
2017-10-24T03:46:40.643Z,24.60
2017-10-24T03:47:14.510Z,24.67
2017-10-24T03:47:48.492Z,24.15
2017-10-24T03:48:22.462Z,24.25
2017-10-24T03:48:56.362Z,24.92
2017-10-24T03:49:30.227Z,24.55
2017-10-24T03:50:04.096Z,23.50
2017-10-24T03:50:38.046Z,25.33
2017-10-24T03:51:11.940Z,23.77
2017-10-24T03:51:45.798Z,22.05
2017-10-24T03:52:19.727Z,25.15
2017-10-24T03:52:53.586Z,22.50
2017-10-24T03:53:27.432Z,22.58
2017-10-24T03:54:01.418Z,23.38
2017-10-24T03:54:35.299Z,24.40
2017-10-24T03:55:09.168Z,24.73
2017-10-24T03:55:43.315Z,22.27
2017-10-24T03:56:17.305Z,22.67
2017-10-24T03:56:51.175Z,21.27
2017-10-24T03:57:25.038Z,23.67
2017-10-24T03:57:58.912Z,23.85
2017-10-24T03:58:33.014Z,22.20
2017-10-24T03:59:06.871Z,22.42
2017-10-24T03:59:40.770Z,21.62
2017-10-24T04:00:14.627Z,23.58
2017-10-24T04:00:48.498Z,22.40
2017-10-24T04:01:22.419Z,23.17
2017-10-24T04:01:56.286Z,22.65
2017-10-24T04:02:30.366Z,22.13
2017-10-24T04:03:04.240Z,24.15
2017-10-24T04:03:38.130Z,24.27
2017-10-24T04:04:11.995Z,24.60
2017-10-24T04:04:45.859Z,23.70
2017-10-24T04:05:19.741Z,22.30
2017-10-24T04:05:53.606Z,22.10
2017-10-24T04:06:27.502Z,22.52
2017-10-24T04:07:01.623Z,21.52
2017-10-24T04:07:35.524Z,20.35
2017-10-24T04:08:09.396Z,20.33
2017-10-24T04:08:43.290Z,21.45
2017-10-24T04:09:17.151Z,22.05
2017-10-24T04:09:51.038Z,21.25
2017-10-24T04:10:24.904Z,21.98
2017-10-24T04:10:58.887Z,21.70
2017-10-24T04:11:32.766Z,21.77
2017-10-24T04:12:06.784Z,20.90
2017-10-24T04:12:40.676Z,21.25
2017-10-24T04:13:14.531Z,22.15
2017-10-24T04:13:48.390Z,22.02
2017-10-24T04:14:22.256Z,19.55
2017-10-24T04:14:56.113Z,17.90
2017-10-24T04:15:29.966Z,19.25
2017-10-24T04:16:04.158Z,18.65
2017-10-24T04:16:38.059Z,19.52
2017-10-24T04:17:11.932Z,19.15
2017-10-24T04:17:45.800Z,19.55
2017-10-24T04:18:19.664Z,19.30
2017-10-24T04:18:53.518Z,20.88
2017-10-24T04:19:27.373Z,19.12
2017-10-24T04:20:01.239Z,18.92
2017-10-24T04:20:35.304Z,18.95
2017-10-24T04:21:09.310Z,18.35
2017-10-24T04:21:43.191Z,17.48
2017-10-24T04:22:17.069Z,17.62
2017-10-24T04:22:50.949Z,18.25
2017-10-24T04:23:24.834Z,19.00
2017-10-24T04:23:58.989Z,19.23
2017-10-24T04:24:32.877Z,19.45
2017-10-24T04:25:06.786Z,17.52
2017-10-24T04:25:40.654Z,18.83
2017-10-24T04:26:14.687Z,19.37
2017-10-24T04:26:48.550Z,18.55
2017-10-24T04:27:22.791Z,18.65
2017-10-24T04:27:56.688Z,18.37
2017-10-24T04:28:30.548Z,17.40
2017-10-24T04:29:04.618Z,18.10
2017-10-24T04:29:38.499Z,17.40
2017-10-24T04:30:12.378Z,17.87
2017-10-24T04:30:46.253Z,17.50
2017-10-24T04:31:20.114Z,17.42
2017-10-24T04:31:54.128Z,17.20
2017-10-24T04:32:27.986Z,18.37
2017-10-24T04:33:02.053Z,18.10
2017-10-24T04:33:35.927Z,17.37
2017-10-24T04:34:09.819Z,17.73
2017-10-24T04:34:43.726Z,16.15
2017-10-24T04:35:17.592Z,18.35
2017-10-24T04:35:51.615Z,17.50
2017-10-24T04:36:25.479Z,18.05
2017-10-24T04:36:59.404Z,18.50
2017-10-24T04:37:33.287Z,17.87
2017-10-24T04:38:07.151Z,16.37
2017-10-24T04:38:41.283Z,19.58
2017-10-24T04:39:15.156Z,17.42
2017-10-24T04:39:49.080Z,18.50
2017-10-24T04:40:22.946Z,18.45
2017-10-24T04:40:56.814Z,17.67
2017-10-24T04:41:30.675Z,18.80
2017-10-24T04:42:04.557Z,19.70
2017-10-24T04:42:38.419Z,18.60
2017-10-24T04:43:12.320Z,19.80
2017-10-24T04:43:46.243Z,19.10
2017-10-24T04:44:20.110Z,19.00
2017-10-24T04:44:54.351Z,18.67
2017-10-24T04:45:28.332Z,17.50
2017-10-24T04:46:02.204Z,19.33
2017-10-24T04:46:36.082Z,18.80
2017-10-24T04:47:09.968Z,18.40
2017-10-24T04:47:43.828Z,18.85
2017-10-24T04:48:17.719Z,17.90
2017-10-24T04:48:51.609Z,20.25
2017-10-24T04:49:25.478Z,20.55
2017-10-24T04:49:59.504Z,21.52
2017-10-24T04:50:33.371Z,18.95
2017-10-24T04:51:07.398Z,17.85
2017-10-24T04:51:41.279Z,17.67
2017-10-24T04:52:15.190Z,18.55
2017-10-24T04:52:49.062Z,17.77
2017-10-24T04:53:23.079Z,18.48
2017-10-24T04:53:56.929Z,18.75
2017-10-24T04:54:30.786Z,18.80
2017-10-24T04:55:04.654Z,17.77
2017-10-24T04:55:38.659Z,20.08
2017-10-24T04:56:12.531Z,19.60
2017-10-24T04:56:46.749Z,18.42
2017-10-24T04:57:20.676Z,18.30
2017-10-24T04:57:54.652Z,20.52
2017-10-24T04:58:28.757Z,19.35
2017-10-24T04:59:02.620Z,18.80
2017-10-24T04:59:36.489Z,17.65
2017-10-24T05:00:10.376Z,19.98
2017-10-24T05:00:44.238Z,18.77
2017-10-24T05:01:18.103Z,20.00
2017-10-24T05:01:51.970Z,18.98
2017-10-24T05:02:25.851Z,18.15
2017-10-24T05:03:00.034Z,19.05
2017-10-24T05:03:33.955Z,19.40
2017-10-24T05:04:07.846Z,19.87
2017-10-24T05:04:41.714Z,19.73
2017-10-24T05:05:15.688Z,19.67
2017-10-24T05:05:49.619Z,20.25
2017-10-24T05:06:23.530Z,18.73
2017-10-24T05:06:57.419Z,20.37
2017-10-24T05:07:31.302Z,20.50
2017-10-24T05:08:05.166Z,20.55
2017-10-24T05:08:39.174Z,18.37
2017-10-24T05:09:13.112Z,20.00
2017-10-24T05:09:47.276Z,20.62
2017-10-24T05:10:21.283Z,19.27
2017-10-24T05:10:55.390Z,20.45
2017-10-24T05:11:29.263Z,18.60
2017-10-24T05:12:03.262Z,19.27
2017-10-24T05:12:37.175Z,18.77
2017-10-24T05:13:11.154Z,19.90
2017-10-24T05:13:45.027Z,18.90
2017-10-24T05:14:19.046Z,18.55
2017-10-24T05:14:52.919Z,18.42
2017-10-24T05:15:26.808Z,19.77
2017-10-24T05:16:00.679Z,19.27
2017-10-24T05:16:34.543Z,19.30
2017-10-24T05:17:08.718Z,18.70
2017-10-24T05:17:42.602Z,18.83
2017-10-24T05:18:16.730Z,20.05
2017-10-24T05:18:50.650Z,19.05
2017-10-24T05:19:24.522Z,19.83
2017-10-24T05:19:58.523Z,18.55
2017-10-24T05:20:32.404Z,19.15
2017-10-24T05:21:06.409Z,19.50
2017-10-24T05:21:40.278Z,20.17
2017-10-24T05:22:14.145Z,20.30
2017-10-24T05:22:48.028Z,19.27
2017-10-24T05:23:22.026Z,20.27
2017-10-24T05:23:55.979Z,18.23
2017-10-24T05:24:29.845Z,20.42
2017-10-24T05:25:03.887Z,19.58
2017-10-24T05:25:37.760Z,18.77
2017-10-24T05:26:11.618Z,18.80
2017-10-24T05:26:45.567Z,19.30
2017-10-24T05:27:19.572Z,19.62
2017-10-24T05:27:53.455Z,19.17
2017-10-24T05:28:27.442Z,19.98
2017-10-24T05:29:01.333Z,18.58
2017-10-24T05:29:35.246Z,20.42
2017-10-24T05:30:09.145Z,17.65
2017-10-24T05:30:43.014Z,18.90
2017-10-24T05:31:17.031Z,18.33
2017-10-24T05:31:50.909Z,21.50
2017-10-24T05:32:24.767Z,20.35
2017-10-24T05:32:58.665Z,20.77
2017-10-24T05:33:32.607Z,19.10
2017-10-24T05:34:06.603Z,19.25
2017-10-24T05:34:40.600Z,19.55
2017-10-24T05:35:14.513Z,19.00
2017-10-24T05:35:48.387Z,19.70
2017-10-24T05:36:22.257Z,18.55
2017-10-24T05:36:56.141Z,19.77
2017-10-24T05:37:30.094Z,19.50
2017-10-24T05:38:03.968Z,20.25
2017-10-24T05:38:37.833Z,20.48
2017-10-24T05:39:11.722Z,21.55
2017-10-24T05:39:45.602Z,19.80
2017-10-24T05:40:19.464Z,19.50
2017-10-24T05:40:53.347Z,19.77
2017-10-24T05:41:27.222Z,19.70
2017-10-24T05:42:01.101Z,19.70
2017-10-24T05:42:34.990Z,19.45
2017-10-24T05:43:08.875Z,18.42
2017-10-24T05:43:42.746Z,19.00
2017-10-24T05:44:16.602Z,19.42
2017-10-24T05:44:50.822Z,20.33
2017-10-24T05:45:24.686Z,19.98
2017-10-24T05:45:58.564Z,20.20
2017-10-24T05:46:32.431Z,19.58
2017-10-24T05:47:06.311Z,21.87
2017-10-24T05:47:40.226Z,20.30
2017-10-24T05:48:14.342Z,20.02
2017-10-24T05:48:48.431Z,18.67
2017-10-24T05:49:22.505Z,20.50
2017-10-24T05:49:56.370Z,21.20
2017-10-24T05:50:30.482Z,19.80
2017-10-24T05:51:04.499Z,20.75
2017-10-24T05:51:38.368Z,20.75
2017-10-24T05:52:12.270Z,21.80
2017-10-24T05:52:46.133Z,18.60
2017-10-24T05:53:20.056Z,18.85
2017-10-24T05:53:53.955Z,19.08
2017-10-24T05:54:27.869Z,20.42
2017-10-24T05:55:01.728Z,19.92
2017-10-24T05:55:35.662Z,19.77
2017-10-24T05:56:09.536Z,20.98
2017-10-24T05:56:43.432Z,20.27
2017-10-24T05:57:17.297Z,20.15
2017-10-24T05:57:51.188Z,20.15
2017-10-24T05:58:25.095Z,19.87
2017-10-24T05:58:58.963Z,17.90
2017-10-24T05:59:32.871Z,20.80
2017-10-24T06:00:06.744Z,21.17
2017-10-24T06:00:40.632Z,19.70
2017-10-24T06:01:14.517Z,19.60
2017-10-24T06:01:48.605Z,21.58
2017-10-24T06:02:22.513Z,20.17
2017-10-24T06:02:56.395Z,21.50
2017-10-24T06:03:30.272Z,20.73
2017-10-24T06:04:04.195Z,20.80
2017-10-24T06:04:38.106Z,19.90
2017-10-24T06:05:12.493Z,19.83
2017-10-24T06:05:46.398Z,20.17
2017-10-24T06:06:20.299Z,22.08
2017-10-24T06:06:55.214Z,19.67
2017-10-24T06:07:29.109Z,19.10
2017-10-24T06:08:03.072Z,20.48
2017-10-24T06:08:37.149Z,20.10
2017-10-24T06:09:11.201Z,21.37
2017-10-24T06:09:45.088Z,19.80
2017-10-24T06:10:18.967Z,20.27
2017-10-24T06:10:52.835Z,17.77
2017-10-24T06:11:26.886Z,21.23
2017-10-24T06:12:00.732Z,18.35
2017-10-24T06:12:34.616Z,20.52
2017-10-24T06:13:08.511Z,20.25
2017-10-24T06:13:42.478Z,18.00
2017-10-24T06:14:16.456Z,18.95
2017-10-24T06:14:50.314Z,19.02
2017-10-24T06:15:24.258Z,20.65
2017-10-24T06:15:58.138Z,19.58
2017-10-24T06:16:31.993Z,20.37
2017-10-24T06:17:06.149Z,19.85
2017-10-24T06:17:40.023Z,19.75
2017-10-24T06:18:13.887Z,21.02
2017-10-24T06:18:47.762Z,20.98
2017-10-24T06:19:21.630Z,19.90
2017-10-24T06:19:55.495Z,21.20
2017-10-24T06:20:29.361Z,20.77
2017-10-24T06:21:03.344Z,22.20
2017-10-24T06:21:37.205Z,21.23
2017-10-24T06:22:11.068Z,19.75
2017-10-24T06:22:44.928Z,20.67
2017-10-24T06:23:18.782Z,19.60
2017-10-24T06:23:52.653Z,19.05
2017-10-24T06:24:26.596Z,17.70
2017-10-24T06:25:00.458Z,19.37
2017-10-24T06:25:34.457Z,20.33
2017-10-24T06:26:08.311Z,20.95
2017-10-24T06:26:42.191Z,22.42
2017-10-24T06:27:16.061Z,20.35
2017-10-24T06:27:49.931Z,20.33
2017-10-24T06:28:23.779Z,18.15
2017-10-24T06:28:57.646Z,18.87
2017-10-24T06:29:31.630Z,19.15
2017-10-24T06:30:05.503Z,20.92
2017-10-24T06:30:39.602Z,19.45
2017-10-24T06:31:13.480Z,21.50
2017-10-24T06:31:47.351Z,20.23
2017-10-24T06:32:21.226Z,18.70
2017-10-24T06:32:55.121Z,18.85
2017-10-24T06:33:29.030Z,19.90
2017-10-24T06:34:02.928Z,19.75
2017-10-24T06:34:36.804Z,20.37
2017-10-24T06:35:10.691Z,18.27
2017-10-24T06:35:44.586Z,19.35
2017-10-24T06:36:18.442Z,21.37
2017-10-24T06:36:52.295Z,20.48
2017-10-24T06:37:26.260Z,20.20
2017-10-24T06:38:00.157Z,22.17
2017-10-24T06:38:34.016Z,20.58
2017-10-24T06:39:07.909Z,18.95
2017-10-24T06:39:42.322Z,17.62
2017-10-24T06:40:16.191Z,18.70
2017-10-24T06:40:50.068Z,17.33
2017-10-24T06:41:23.933Z,19.23
2017-10-24T06:41:57.804Z,20.20
2017-10-24T06:42:31.687Z,18.62
2017-10-24T06:43:05.730Z,17.67
2017-10-24T06:43:39.597Z,20.37
2017-10-24T06:44:13.523Z,19.02
2017-10-24T06:44:47.387Z,22.45
2017-10-24T06:45:21.271Z,19.45
2017-10-24T06:45:55.305Z,19.50
2017-10-24T06:46:29.196Z,19.45
2017-10-24T06:47:03.601Z,19.40
2017-10-24T06:47:37.497Z,19.12
2017-10-24T06:48:11.449Z,18.50
2017-10-24T06:48:45.446Z,17.37
2017-10-24T06:49:19.328Z,17.12
2017-10-24T06:49:53.195Z,16.08
2017-10-24T06:50:27.175Z,17.40
2017-10-24T06:51:01.042Z,17.27
2017-10-24T06:51:35.070Z,18.15
2017-10-24T06:52:09.402Z,17.83
2017-10-24T06:52:43.754Z,18.75
2017-10-24T06:53:17.678Z,18.27
2017-10-24T06:53:51.566Z,17.55
2017-10-24T06:54:25.480Z,17.48
2017-10-24T06:54:59.362Z,18.58
2017-10-24T06:55:33.836Z,17.10
2017-10-24T06:56:07.699Z,17.45
2017-10-24T06:56:41.915Z,17.37
2017-10-24T06:57:15.812Z,17.30
2017-10-24T06:57:49.859Z,18.50
2017-10-24T06:58:23.722Z,17.12
2017-10-24T06:58:57.849Z,17.70
2017-10-24T06:59:31.722Z,18.48
2017-10-24T07:00:05.644Z,20.88
2017-10-24T07:00:39.547Z,17.90
2017-10-24T07:01:13.414Z,18.33
2017-10-24T07:01:47.280Z,17.02
2017-10-24T07:02:21.155Z,18.73
2017-10-24T07:02:55.233Z,18.62
2017-10-24T07:03:29.093Z,19.62
2017-10-24T07:04:02.984Z,18.10
2017-10-24T07:04:37.003Z,18.65
2017-10-24T07:05:11.001Z,17.20
2017-10-24T07:05:44.867Z,17.30
2017-10-24T07:06:18.940Z,17.50
2017-10-24T07:06:52.793Z,17.15
2017-10-24T07:07:26.881Z,16.00
2017-10-24T07:08:01.188Z,15.95
2017-10-24T07:08:35.102Z,16.62
2017-10-24T07:09:10.100Z,17.70
2017-10-24T07:09:44.132Z,17.90
2017-10-24T07:10:18.060Z,18.60
2017-10-24T07:10:52.556Z,17.92
2017-10-24T07:11:26.523Z,19.33
2017-10-24T07:12:00.611Z,17.30
2017-10-24T07:12:35.201Z,16.30
2017-10-24T07:13:11.282Z,16.27
2017-10-24T07:13:47.536Z,17.52
2017-10-24T07:14:21.533Z,15.95
2017-10-24T07:14:55.864Z,16.48
2017-10-24T07:15:30.734Z,15.77
2017-10-24T07:16:04.628Z,16.62
2017-10-24T07:16:38.802Z,16.73
2017-10-24T07:17:13.391Z,16.15